Latakia, Turkey
Current Conditions -  °F | °C
As of 12:00 PM on Thursday 23 Oct 2014 (Local Time) from OSLK Reporting Station
Few Clouds Few Clouds  
Wind Chill: 81°   Ceiling: Unl
Heat Index: 81°   Visibility: 6mi
Dew Point: 55°   Wind: 7mph
Humidity: 42%   Direction: 230°SW
Pressure: 29.97"   Gusts: NA
Location:  35.52°N, 35.78°E
Report Text: OSLK 230900Z 23006KT 9999 FEW030 27/13 Q1015
Loading
Personal Weather Stations






























Interactive Weather Map
Tropical Storm Tracking
New forecast layout! Learn more

10-Day Weather Forecast

Advertisements
Track Severe Weather on mobile